createdAt,value
2019-03-30T00:02:09.549Z,21.35
2019-03-30T00:04:43.642Z,22.73
2019-03-30T00:07:17.591Z,21.97
2019-03-30T00:09:51.606Z,21.80
2019-03-30T00:12:25.072Z,22.60
2019-03-30T00:14:59.182Z,24.05
2019-03-30T00:17:33.191Z,18.57
2019-03-30T00:20:07.625Z,24.23
2019-03-30T00:22:40.905Z,24.43
2019-03-30T00:25:15.848Z,20.82
2019-03-30T00:27:49.528Z,19.85
2019-03-30T00:30:22.937Z,22.77
2019-03-30T00:32:56.676Z,20.35
2019-03-30T00:35:30.029Z,21.20
2019-03-30T00:38:03.543Z,25.82
2019-03-30T00:40:37.868Z,23.07
2019-03-30T00:43:12.340Z,25.25
2019-03-30T00:45:45.799Z,28.15
2019-03-30T00:48:20.126Z,19.02
2019-03-30T00:50:53.878Z,27.10
2019-03-30T00:53:26.757Z,19.17
2019-03-30T00:56:00.397Z,20.10
2019-03-30T00:58:34.595Z,20.95
2019-03-30T01:01:08.735Z,24.95
2019-03-30T01:03:43.074Z,22.80
2019-03-30T01:06:17.505Z,22.32
2019-03-30T01:08:51.825Z,21.50
2019-03-30T01:11:25.346Z,24.45
2019-03-30T01:13:58.792Z,22.35
2019-03-30T01:16:32.721Z,22.58
2019-03-30T01:19:06.350Z,22.98
2019-03-30T01:21:40.195Z,26.27
2019-03-30T01:24:14.207Z,23.42
2019-03-30T01:26:48.224Z,23.52
2019-03-30T01:29:21.916Z,22.58
2019-03-30T01:31:55.856Z,21.93
2019-03-30T01:34:30.621Z,19.65
2019-03-30T01:37:04.543Z,21.75
2019-03-30T01:39:38.199Z,25.57
2019-03-30T01:42:12.313Z,22.32
2019-03-30T01:44:46.372Z,22.20
2019-03-30T01:47:20.194Z,21.57
2019-03-30T01:49:53.292Z,22.00
2019-03-30T01:52:27.083Z,20.08
2019-03-30T01:55:00.507Z,24.37
2019-03-30T01:57:34.418Z,25.52
2019-03-30T02:00:10.727Z,19.87
2019-03-30T02:02:45.336Z,19.50
2019-03-30T02:05:19.433Z,21.05
2019-03-30T02:07:53.022Z,21.62
2019-03-30T02:10:43.724Z,26.70
2019-03-30T02:13:17.661Z,21.62
2019-03-30T02:15:50.735Z,20.90
2019-03-30T02:18:24.633Z,22.35
2019-03-30T02:20:58.461Z,24.90
2019-03-30T02:23:32.455Z,22.95
2019-03-30T02:26:06.731Z,23.73
2019-03-30T02:28:40.600Z,22.67
2019-03-30T02:31:14.529Z,22.65
2019-03-30T02:33:48.398Z,20.52
2019-03-30T02:36:21.662Z,18.37
2019-03-30T02:38:54.847Z,21.50
2019-03-30T02:41:28.379Z,23.42
2019-03-30T02:44:02.051Z,26.25
2019-03-30T02:46:36.004Z,21.45
2019-03-30T02:49:10.006Z,23.07
2019-03-30T02:51:43.511Z,25.32
2019-03-30T02:54:16.606Z,23.62
2019-03-30T02:56:50.603Z,20.95
2019-03-30T02:59:24.610Z,26.37
2019-03-30T03:01:58.503Z,23.02
2019-03-30T03:04:32.050Z,19.27
2019-03-30T03:07:06.276Z,22.85
2019-03-30T03:09:40.782Z,19.27
2019-03-30T03:12:13.847Z,20.52
2019-03-30T03:14:47.719Z,20.65
2019-03-30T13:22:02.809Z,17.00
2019-03-30T13:24:36.646Z,16.83
2019-03-30T13:27:12.968Z,12.80
2019-03-30T13:29:48.422Z,15.13
2019-03-30T13:32:22.036Z,14.33
2019-03-30T13:34:56.007Z,13.53
2019-03-30T13:37:29.982Z,16.90
2019-03-30T13:40:04.142Z,14.63
2019-03-30T13:42:38.808Z,13.37
2019-03-30T13:45:19.846Z,17.23
2019-03-30T13:47:54.084Z,15.73
2019-03-30T13:50:30.830Z,11.83
2019-03-30T13:53:05.724Z,13.53
2019-03-30T13:55:40.196Z,15.87
2019-03-30T13:58:15.493Z,13.07
2019-03-30T14:00:49.629Z,16.97
2019-03-30T14:03:23.744Z,15.77
2019-03-30T14:05:56.739Z,11.93
2019-03-30T14:08:34.549Z,13.43
2019-03-30T14:11:08.113Z,11.87
2019-03-30T14:13:43.915Z,14.60
2019-03-30T14:16:18.854Z,14.87
2019-03-30T14:18:52.022Z,11.07
2019-03-30T14:21:26.059Z,12.00
2019-03-30T14:24:00.435Z,12.00
2019-03-30T14:26:35.878Z,18.13
2019-03-30T14:29:10.305Z,13.67
2019-03-30T14:31:43.997Z,13.13
2019-03-30T14:34:18.300Z,16.43
2019-03-30T14:36:54.437Z,12.23
2019-03-30T14:39:28.820Z,13.43
2019-03-30T14:42:02.458Z,12.50
2019-03-30T14:44:36.075Z,12.97
2019-03-30T14:47:10.155Z,11.60
2019-03-30T14:49:43.921Z,12.13
2019-03-30T14:52:17.529Z,11.77
2019-03-30T14:54:53.102Z,10.93
2019-03-30T14:57:26.320Z,13.13
2019-03-30T15:00:00.100Z,11.10
2019-03-30T15:02:34.883Z,10.20
2019-03-30T15:05:08.404Z,13.27
2019-03-30T15:07:42.610Z,10.30
2019-03-30T15:10:16.662Z,11.53
2019-03-30T15:12:49.897Z,15.20
2019-03-30T15:15:23.948Z,12.03
2019-03-30T15:18:00.278Z,11.47
2019-03-30T15:20:35.970Z,14.63
2019-03-30T15:23:10.362Z,10.07
2019-03-30T15:25:45.237Z,11.00
2019-03-30T15:28:19.602Z,10.83
2019-03-30T15:30:55.417Z,10.50
2019-03-30T15:33:29.963Z,11.60
2019-03-30T15:36:05.264Z,11.20
2019-03-30T15:38:38.876Z,11.47
2019-03-30T15:41:16.629Z,13.20
2019-03-30T15:43:52.633Z,13.20
2019-03-30T15:46:26.900Z,11.07
2019-03-30T15:49:03.777Z,10.70
2019-03-30T15:51:37.735Z,12.10
2019-03-30T15:54:13.475Z,14.10
2019-03-30T15:56:48.878Z,12.10
2019-03-30T15:59:23.877Z,10.60
2019-03-30T16:01:57.881Z,13.17
2019-03-30T16:04:32.634Z,11.70
2019-03-30T16:07:08.679Z,15.03
2019-03-30T16:09:42.667Z,17.73
2019-03-30T16:12:17.263Z,11.80
2019-03-30T16:14:52.033Z,10.70
2019-03-30T16:17:25.867Z,12.47
2019-03-30T16:20:00.182Z,12.10
2019-03-30T16:22:34.442Z,10.73
2019-03-30T16:25:08.663Z,13.20
2019-03-30T16:27:42.107Z,11.23
2019-03-30T16:30:17.506Z,14.30
2019-03-30T16:32:51.636Z,13.80
2019-03-30T16:35:25.127Z,12.57
2019-03-30T16:38:00.288Z,14.83
2019-03-30T16:40:33.803Z,11.93
2019-03-30T16:43:08.557Z,10.10
2019-03-30T16:45:42.694Z,14.80
2019-03-30T16:48:16.520Z,13.83
2019-03-30T16:50:50.191Z,14.00
2019-03-30T16:53:23.801Z,16.07
2019-03-30T16:55:57.276Z,11.83
2019-03-30T16:58:31.421Z,12.90
2019-03-30T17:01:05.442Z,12.50
2019-03-30T17:03:38.683Z,13.10
2019-03-30T17:06:12.725Z,12.63
2019-03-30T17:08:46.776Z,11.13
2019-03-30T17:11:20.661Z,13.67
2019-03-30T17:13:54.101Z,12.23
2019-03-30T17:16:28.709Z,13.23
2019-03-30T17:19:02.606Z,12.87
2019-03-30T17:21:35.868Z,14.40
2019-03-30T17:24:09.437Z,10.47
2019-03-30T17:26:43.030Z,11.60
2019-03-30T17:29:16.834Z,15.23
2019-03-30T17:31:50.753Z,14.10
2019-03-30T17:34:24.513Z,17.70
2019-03-30T17:36:58.381Z,13.60
2019-03-30T17:39:31.744Z,12.03
2019-03-30T17:42:05.460Z,13.23
2019-03-30T17:44:40.514Z,43.83
2019-03-30T17:47:13.771Z,14.10
2019-03-30T17:49:48.454Z,18.37
2019-03-30T17:52:22.030Z,19.30
2019-03-30T17:54:56.363Z,12.13
2019-03-30T17:57:29.960Z,22.02
2019-03-30T18:00:03.746Z,17.50
2019-03-30T18:02:38.024Z,17.70
2019-03-30T18:05:12.134Z,18.23
2019-03-30T18:07:46.636Z,17.32
2019-03-30T18:10:21.174Z,14.33
2019-03-30T18:12:55.976Z,16.63
2019-03-30T18:15:29.681Z,13.47
2019-03-30T18:18:04.207Z,14.47
2019-03-30T18:20:37.578Z,14.33
2019-03-30T18:23:11.331Z,14.60
2019-03-30T18:25:44.697Z,16.67
2019-03-30T18:28:27.107Z,18.37
2019-03-30T18:30:54.726Z,24.35
2019-03-30T18:33:29.201Z,16.42
2019-03-30T18:36:03.506Z,13.93
2019-03-30T18:38:39.589Z,16.45
2019-03-30T18:41:13.513Z,20.68
2019-03-30T18:43:47.477Z,19.67
2019-03-30T18:46:20.373Z,16.87
2019-03-30T18:48:54.580Z,14.55
2019-03-30T18:51:29.098Z,15.80
2019-03-30T18:54:04.090Z,18.25
2019-03-30T18:56:38.525Z,20.55
2019-03-30T18:59:12.423Z,17.85
2019-03-30T19:01:46.145Z,17.00
2019-03-30T19:04:20.676Z,19.98
2019-03-30T19:06:54.855Z,17.23
2019-03-30T19:09:28.911Z,16.48
2019-03-30T19:12:03.684Z,19.98
2019-03-30T19:14:37.365Z,17.82
2019-03-30T19:17:11.460Z,17.35
2019-03-30T19:19:45.556Z,17.00
2019-03-30T19:22:19.794Z,17.92
2019-03-30T19:24:53.885Z,20.10
2019-03-30T19:27:27.681Z,17.05
2019-03-30T19:30:01.753Z,18.73
2019-03-30T19:32:36.347Z,17.98
2019-03-30T19:35:10.414Z,16.90
2019-03-30T19:37:44.498Z,19.27
2019-03-30T19:40:18.550Z,21.85
2019-03-30T19:42:52.280Z,19.15
2019-03-30T19:45:26.119Z,19.90
2019-03-30T19:48:00.167Z,16.40
2019-03-30T19:50:34.540Z,17.17
2019-03-30T19:53:08.952Z,15.28
2019-03-30T19:55:43.508Z,21.60
2019-03-30T19:58:17.220Z,21.62
2019-03-30T20:00:51.514Z,19.40
2019-03-30T20:03:25.903Z,22.95
2019-03-30T20:05:59.942Z,21.25
2019-03-30T20:08:33.742Z,20.90
2019-03-30T20:11:08.286Z,18.52
2019-03-30T20:13:42.344Z,24.82
2019-03-30T20:16:16.378Z,21.25
2019-03-30T20:18:50.193Z,19.80
2019-03-30T20:21:23.044Z,21.17
2019-03-30T20:23:56.240Z,20.80
2019-03-30T20:26:29.820Z,23.77
2019-03-30T20:29:03.675Z,21.02
2019-03-30T20:31:37.781Z,20.00
2019-03-30T20:34:12.799Z,22.15
2019-03-30T20:36:46.736Z,19.15
2019-03-30T20:39:20.082Z,21.17
2019-03-30T20:41:53.880Z,23.67
2019-03-30T20:44:27.596Z,22.85
2019-03-30T20:47:01.041Z,25.95
2019-03-30T20:49:34.797Z,26.45
2019-03-30T20:52:08.848Z,27.87
2019-03-30T20:54:42.922Z,24.30
2019-03-30T20:57:17.443Z,28.83
2019-03-30T20:59:50.992Z,35.10
2019-03-30T21:02:24.946Z,31.55
2019-03-30T21:04:58.657Z,31.07
2019-03-30T21:07:32.019Z,38.00
2019-03-30T21:10:07.194Z,35.08
2019-03-30T21:12:41.712Z,38.45
2019-03-30T21:15:15.462Z,36.88
2019-03-30T21:17:49.145Z,40.08
2019-03-30T21:20:23.574Z,42.23
2019-03-30T21:22:57.595Z,41.92
2019-03-30T21:25:31.945Z,42.00
2019-03-30T21:28:06.001Z,42.33
2019-03-30T21:30:40.005Z,45.30
2019-03-30T21:33:14.032Z,41.70
2019-03-30T21:35:48.238Z,41.98
2019-03-30T21:38:23.126Z,44.67
2019-03-30T21:40:57.036Z,44.75
2019-03-30T21:43:31.154Z,44.63
2019-03-30T21:46:05.704Z,49.75
2019-03-30T21:48:40.160Z,55.80
2019-03-30T21:51:14.293Z,48.58
2019-03-30T21:53:48.494Z,52.95
2019-03-30T21:56:22.193Z,56.80
2019-03-30T21:58:56.365Z,51.80
2019-03-30T22:01:30.463Z,58.50
2019-03-30T22:04:04.733Z,61.63
2019-03-30T22:06:38.189Z,59.30
2019-03-30T22:09:12.501Z,56.77
2019-03-30T22:11:46.055Z,60.10
2019-03-30T22:14:20.410Z,61.95
2019-03-30T22:16:54.877Z,54.88
2019-03-30T22:19:28.270Z,59.60
2019-03-30T22:22:02.699Z,58.30
2019-03-30T22:24:36.314Z,58.00
2019-03-30T22:27:10.059Z,55.90
2019-03-30T22:29:43.190Z,67.47
2019-03-30T22:32:17.097Z,63.33
2019-03-30T22:34:50.632Z,67.82
2019-03-30T22:37:24.248Z,69.75
2019-03-30T22:39:57.760Z,76.80
2019-03-30T22:42:31.955Z,75.20
2019-03-30T22:45:07.253Z,65.37
2019-03-30T22:47:41.775Z,83.37
2019-03-30T22:50:16.442Z,68.37
2019-03-30T22:52:50.328Z,70.25
2019-03-30T22:55:24.376Z,76.47
2019-03-30T22:57:58.963Z,78.37
2019-03-30T23:00:50.556Z,82.15
2019-03-30T23:03:25.197Z,77.10
2019-03-30T23:05:59.530Z,87.47
2019-03-30T23:08:33.460Z,86.32
2019-03-30T23:11:07.355Z,80.25
2019-03-30T23:13:41.395Z,73.07
2019-03-30T23:16:14.873Z,84.32
2019-03-30T23:18:48.388Z,84.00
2019-03-30T23:21:21.646Z,82.72
2019-03-30T23:23:55.212Z,79.17
2019-03-30T23:26:28.596Z,81.10
2019-03-30T23:29:03.584Z,77.82
2019-03-30T23:31:38.263Z,67.85
2019-03-30T23:34:11.957Z,74.97
2019-03-30T23:36:45.939Z,79.87
2019-03-30T23:39:19.208Z,78.15
2019-03-30T23:41:52.889Z,74.32
2019-03-30T23:44:26.749Z,70.78
2019-03-30T23:47:00.863Z,70.08
2019-03-30T23:49:34.799Z,80.00
2019-03-30T23:52:08.385Z,74.45
2019-03-30T23:54:42.184Z,83.47
2019-03-30T23:57:16.090Z,86.00
2019-03-30T23:59:50.147Z,94.50
